sensor_id;sensor_type;location;lat;lon;timestamp;temperature;humidity
65374;SHT31;52070;53.760;9.678;2023-04-25T00:00:48;7.20;87.61
65374;SHT31;52070;53.760;9.678;2023-04-25T00:03:15;7.19;87.54
65374;SHT31;52070;53.760;9.678;2023-04-25T00:05:44;7.21;87.74
65374;SHT31;52070;53.760;9.678;2023-04-25T00:08:11;7.20;87.25
65374;SHT31;52070;53.760;9.678;2023-04-25T00:10:38;7.20;87.67
65374;SHT31;52070;53.760;9.678;2023-04-25T00:13:05;7.16;87.64
65374;SHT31;52070;53.760;9.678;2023-04-25T00:15:31;7.14;87.17
65374;SHT31;52070;53.760;9.678;2023-04-25T00:18:00;7.17;86.51
65374;SHT31;52070;53.760;9.678;2023-04-25T00:20:27;7.11;86.40
65374;SHT31;52070;53.760;9.678;2023-04-25T00:22:54;7.14;85.87
65374;SHT31;52070;53.760;9.678;2023-04-25T00:25:21;7.14;85.48
65374;SHT31;52070;53.760;9.678;2023-04-25T00:27:48;7.10;84.78
65374;SHT31;52070;53.760;9.678;2023-04-25T00:30:15;7.07;84.90
65374;SHT31;52070;53.760;9.678;2023-04-25T00:32:42;7.03;84.34
65374;SHT31;52070;53.760;9.678;2023-04-25T00:35:10;7.03;84.59
65374;SHT31;52070;53.760;9.678;2023-04-25T00:37:37;6.97;84.90
65374;SHT31;52070;53.760;9.678;2023-04-25T00:40:05;6.97;84.32
65374;SHT31;52070;53.760;9.678;2023-04-25T00:42:34;6.95;84.33
65374;SHT31;52070;53.760;9.678;2023-04-25T00:45:01;6.96;84.17
65374;SHT31;52070;53.760;9.678;2023-04-25T00:47:31;6.95;84.02
65374;SHT31;52070;53.760;9.678;2023-04-25T00:49:59;6.90;83.64
65374;SHT31;52070;53.760;9.678;2023-04-25T00:52:27;6.92;83.51
65374;SHT31;52070;53.760;9.678;2023-04-25T00:54:54;6.87;83.12
65374;SHT31;52070;53.760;9.678;2023-04-25T00:57:21;6.86;83.90
65374;SHT31;52070;53.760;9.678;2023-04-25T00:59:50;6.85;84.72
65374;SHT31;52070;53.760;9.678;2023-04-25T01:02:18;6.80;84.40
65374;SHT31;52070;53.760;9.678;2023-04-25T01:04:47;6.80;83.63
65374;SHT31;52070;53.760;9.678;2023-04-25T01:07:14;6.76;82.53
65374;SHT31;52070;53.760;9.678;2023-04-25T01:09:43;6.73;81.46
65374;SHT31;52070;53.760;9.678;2023-04-25T01:12:10;6.72;80.17
65374;SHT31;52070;53.760;9.678;2023-04-25T01:14:37;6.72;80.09
65374;SHT31;52070;53.760;9.678;2023-04-25T01:17:04;6.68;79.39
65374;SHT31;52070;53.760;9.678;2023-04-25T01:19:33;6.66;79.51
65374;SHT31;52070;53.760;9.678;2023-04-25T01:22:01;6.56;79.12
65374;SHT31;52070;53.760;9.678;2023-04-25T01:24:29;6.55;79.31
65374;SHT31;52070;53.760;9.678;2023-04-25T01:26:56;6.50;80.18
65374;SHT31;52070;53.760;9.678;2023-04-25T01:29:24;6.52;79.29
65374;SHT31;52070;53.760;9.678;2023-04-25T01:31:52;6.52;78.75
65374;SHT31;52070;53.760;9.678;2023-04-25T01:34:19;6.49;79.27
65374;SHT31;52070;53.760;9.678;2023-04-25T01:36:47;6.49;79.15
65374;SHT31;52070;53.760;9.678;2023-04-25T01:39:17;6.48;79.12
65374;SHT31;52070;53.760;9.678;2023-04-25T01:41:45;6.48;78.60
65374;SHT31;52070;53.760;9.678;2023-04-25T01:44:12;6.50;78.42
65374;SHT31;52070;53.760;9.678;2023-04-25T01:46:39;6.48;79.48
65374;SHT31;52070;53.760;9.678;2023-04-25T01:49:06;6.46;80.46
65374;SHT31;52070;53.760;9.678;2023-04-25T01:51:33;6.38;79.40
65374;SHT31;52070;53.760;9.678;2023-04-25T01:54:00;6.44;77.72
65374;SHT31;52070;53.760;9.678;2023-04-25T01:56:31;6.46;76.40
65374;SHT31;52070;53.760;9.678;2023-04-25T01:58:58;6.44;77.95
65374;SHT31;52070;53.760;9.678;2023-04-25T02:01:25;6.41;77.13
65374;SHT31;52070;53.760;9.678;2023-04-25T02:03:52;6.38;76.63
65374;SHT31;52070;53.760;9.678;2023-04-25T02:06:19;6.39;76.73
65374;SHT31;52070;53.760;9.678;2023-04-25T02:08:46;6.36;76.86
65374;SHT31;52070;53.760;9.678;2023-04-25T02:11:13;6.36;77.08
65374;SHT31;52070;53.760;9.678;2023-04-25T02:13:41;6.35;77.42
65374;SHT31;52070;53.760;9.678;2023-04-25T02:16:08;6.34;77.17
65374;SHT31;52070;53.760;9.678;2023-04-25T02:18:35;6.34;76.88
65374;SHT31;52070;53.760;9.678;2023-04-25T02:21:03;6.34;76.05
65374;SHT31;52070;53.760;9.678;2023-04-25T02:23:30;6.35;75.48
65374;SHT31;52070;53.760;9.678;2023-04-25T02:25:57;6.29;75.11
65374;SHT31;52070;53.760;9.678;2023-04-25T02:28:24;6.29;74.65
65374;SHT31;52070;53.760;9.678;2023-04-25T02:30:53;6.26;74.72
65374;SHT31;52070;53.760;9.678;2023-04-25T02:33:20;6.24;75.00
65374;SHT31;52070;53.760;9.678;2023-04-25T02:35:47;6.15;74.87
65374;SHT31;52070;53.760;9.678;2023-04-25T02:38:14;6.17;75.82
65374;SHT31;52070;53.760;9.678;2023-04-25T02:40:41;6.08;75.61
65374;SHT31;52070;53.760;9.678;2023-04-25T02:43:08;6.07;75.62
65374;SHT31;52070;53.760;9.678;2023-04-25T02:45:34;6.05;76.35
65374;SHT31;52070;53.760;9.678;2023-04-25T02:48:03;6.05;75.04
65374;SHT31;52070;53.760;9.678;2023-04-25T02:50:30;6.00;75.33
65374;SHT31;52070;53.760;9.678;2023-04-25T02:52:57;5.97;74.90
65374;SHT31;52070;53.760;9.678;2023-04-25T02:55:24;5.91;75.64
65374;SHT31;52070;53.760;9.678;2023-04-25T02:57:51;5.86;74.76
65374;SHT31;52070;53.760;9.678;2023-04-25T03:00:21;5.80;74.71
65374;SHT31;52070;53.760;9.678;2023-04-25T03:02:48;5.75;73.58
65374;SHT31;52070;53.760;9.678;2023-04-25T03:05:16;5.71;73.00
65374;SHT31;52070;53.760;9.678;2023-04-25T03:07:43;5.71;71.80
65374;SHT31;52070;53.760;9.678;2023-04-25T03:10:11;5.70;71.33
65374;SHT31;52070;53.760;9.678;2023-04-25T03:12:38;5.61;71.02
65374;SHT31;52070;53.760;9.678;2023-04-25T03:15:06;5.57;70.85
65374;SHT31;52070;53.760;9.678;2023-04-25T03:17:33;5.53;71.27
65374;SHT31;52070;53.760;9.678;2023-04-25T03:20:00;5.54;71.52
65374;SHT31;52070;53.760;9.678;2023-04-25T03:22:31;5.50;71.02
65374;SHT31;52070;53.760;9.678;2023-04-25T03:24:58;5.50;71.49
65374;SHT31;52070;53.760;9.678;2023-04-25T03:27:24;5.53;71.09
65374;SHT31;52070;53.760;9.678;2023-04-25T03:29:51;5.51;70.46
65374;SHT31;52070;53.760;9.678;2023-04-25T03:32:18;5.56;70.87
65374;SHT31;52070;53.760;9.678;2023-04-25T03:34:45;5.51;70.58
65374;SHT31;52070;53.760;9.678;2023-04-25T03:37:12;5.49;70.86
65374;SHT31;52070;53.760;9.678;2023-04-25T03:39:40;5.47;71.14
65374;SHT31;52070;53.760;9.678;2023-04-25T03:42:07;5.49;70.62
65374;SHT31;52070;53.760;9.678;2023-04-25T03:44:34;5.56;69.21
65374;SHT31;52070;53.760;9.678;2023-04-25T03:47:01;5.64;68.47
65374;SHT31;52070;53.760;9.678;2023-04-25T03:49:28;5.66;69.32
65374;SHT31;52070;53.760;9.678;2023-04-25T03:51:55;5.66;67.91
65374;SHT31;52070;53.760;9.678;2023-04-25T03:54:21;5.66;67.89
65374;SHT31;52070;53.760;9.678;2023-04-25T03:56:50;5.63;67.39
65374;SHT31;52070;53.760;9.678;2023-04-25T03:59:17;5.64;65.79
65374;SHT31;52070;53.760;9.678;2023-04-25T04:01:43;5.64;66.41
65374;SHT31;52070;53.760;9.678;2023-04-25T04:04:10;5.66;66.12
65374;SHT31;52070;53.760;9.678;2023-04-25T04:06:37;5.66;66.25
65374;SHT31;52070;53.760;9.678;2023-04-25T04:09:04;5.71;66.19
65374;SHT31;52070;53.760;9.678;2023-04-25T04:11:35;5.67;67.39
65374;SHT31;52070;53.760;9.678;2023-04-25T04:14:05;5.70;66.76
65374;SHT31;52070;53.760;9.678;2023-04-25T04:16:32;5.67;67.18
65374;SHT31;52070;53.760;9.678;2023-04-25T04:18:59;5.66;68.20
65374;SHT31;52070;53.760;9.678;2023-04-25T04:21:26;5.73;66.98
65374;SHT31;52070;53.760;9.678;2023-04-25T04:23:53;5.74;68.41
65374;SHT31;52070;53.760;9.678;2023-04-25T04:26:21;5.74;68.42
65374;SHT31;52070;53.760;9.678;2023-04-25T04:28:49;5.74;68.24
65374;SHT31;52070;53.760;9.678;2023-04-25T04:31:18;5.71;67.95
65374;SHT31;52070;53.760;9.678;2023-04-25T04:33:45;5.71;68.69
65374;SHT31;52070;53.760;9.678;2023-04-25T04:36:12;5.73;68.90
65374;SHT31;52070;53.760;9.678;2023-04-25T04:38:39;5.78;69.51
65374;SHT31;52070;53.760;9.678;2023-04-25T04:41:08;5.86;69.59
65374;SHT31;52070;53.760;9.678;2023-04-25T04:43:35;5.89;70.01
65374;SHT31;52070;53.760;9.678;2023-04-25T04:46:02;5.91;70.83
65374;SHT31;52070;53.760;9.678;2023-04-25T04:48:32;5.81;73.94
65374;SHT31;52070;53.760;9.678;2023-04-25T04:51:00;5.40;77.38
65374;SHT31;52070;53.760;9.678;2023-04-25T04:53:27;5.19;79.16
65374;SHT31;52070;53.760;9.678;2023-04-25T04:55:54;5.06;78.97
65374;SHT31;52070;53.760;9.678;2023-04-25T04:58:21;5.04;78.74
65374;SHT31;52070;53.760;9.678;2023-04-25T05:00:49;5.06;78.39
65374;SHT31;52070;53.760;9.678;2023-04-25T05:03:16;5.12;77.97
65374;SHT31;52070;53.760;9.678;2023-04-25T05:05:44;5.23;77.05
65374;SHT31;52070;53.760;9.678;2023-04-25T05:08:11;5.26;77.33
65374;SHT31;52070;53.760;9.678;2023-04-25T05:10:38;5.30;77.63
65374;SHT31;52070;53.760;9.678;2023-04-25T05:13:05;5.27;77.68
65374;SHT31;52070;53.760;9.678;2023-04-25T05:15:32;5.25;78.15
65374;SHT31;52070;53.760;9.678;2023-04-25T05:17:59;5.33;78.69
65374;SHT31;52070;53.760;9.678;2023-04-25T05:20:27;5.30;79.14
65374;SHT31;52070;53.760;9.678;2023-04-25T05:22:55;5.26;79.55
65374;SHT31;52070;53.760;9.678;2023-04-25T05:25:22;5.23;79.53
65374;SHT31;52070;53.760;9.678;2023-04-25T05:27:49;5.25;80.14
65374;SHT31;52070;53.760;9.678;2023-04-25T05:30:16;5.30;80.09
65374;SHT31;52070;53.760;9.678;2023-04-25T05:32:43;5.32;79.87
65374;SHT31;52070;53.760;9.678;2023-04-25T05:35:12;5.35;80.13
65374;SHT31;52070;53.760;9.678;2023-04-25T05:37:39;5.40;80.31
65374;SHT31;52070;53.760;9.678;2023-04-25T05:40:08;5.44;80.78
65374;SHT31;52070;53.760;9.678;2023-04-25T05:42:35;5.49;80.65
65374;SHT31;52070;53.760;9.678;2023-04-25T05:45:03;5.57;80.74
65374;SHT31;52070;53.760;9.678;2023-04-25T05:47:30;5.61;80.32
65374;SHT31;52070;53.760;9.678;2023-04-25T05:49:57;5.60;80.01
65374;SHT31;52070;53.760;9.678;2023-04-25T05:52:25;5.57;80.19
65374;SHT31;52070;53.760;9.678;2023-04-25T05:54:51;5.59;80.23
65374;SHT31;52070;53.760;9.678;2023-04-25T05:57:22;5.67;80.98
65374;SHT31;52070;53.760;9.678;2023-04-25T05:59:49;5.77;81.24
65374;SHT31;52070;53.760;9.678;2023-04-25T06:02:16;5.89;81.45
65374;SHT31;52070;53.760;9.678;2023-04-25T06:04:43;5.95;80.69
65374;SHT31;52070;53.760;9.678;2023-04-25T06:07:10;5.95;79.61
65374;SHT31;52070;53.760;9.678;2023-04-25T06:09:37;5.97;78.28
65374;SHT31;52070;53.760;9.678;2023-04-25T06:12:05;5.95;77.21
65374;SHT31;52070;53.760;9.678;2023-04-25T06:14:34;5.97;77.37
65374;SHT31;52070;53.760;9.678;2023-04-25T06:17:01;5.97;77.27
65374;SHT31;52070;53.760;9.678;2023-04-25T06:19:32;5.97;77.07
65374;SHT31;52070;53.760;9.678;2023-04-25T06:21:59;5.95;77.54
65374;SHT31;52070;53.760;9.678;2023-04-25T06:24:26;6.04;78.30
65374;SHT31;52070;53.760;9.678;2023-04-25T06:26:53;6.04;78.59
65374;SHT31;52070;53.760;9.678;2023-04-25T06:29:20;5.86;79.31
65374;SHT31;52070;53.760;9.678;2023-04-25T06:31:49;5.69;79.95
65374;SHT31;52070;53.760;9.678;2023-04-25T06:34:16;5.60;80.33
65374;SHT31;52070;53.760;9.678;2023-04-25T06:36:43;5.50;80.51
65374;SHT31;52070;53.760;9.678;2023-04-25T06:39:10;5.50;81.23
65374;SHT31;52070;53.760;9.678;2023-04-25T06:41:37;5.54;81.43
65374;SHT31;52070;53.760;9.678;2023-04-25T06:44:04;5.53;81.63
65374;SHT31;52070;53.760;9.678;2023-04-25T06:46:31;5.23;80.73
65374;SHT31;52070;53.760;9.678;2023-04-25T06:49:00;5.13;81.73
65374;SHT31;52070;53.760;9.678;2023-04-25T06:51:27;5.08;81.09
65374;SHT31;52070;53.760;9.678;2023-04-25T06:53:55;5.15;81.71
65374;SHT31;52070;53.760;9.678;2023-04-25T06:56:22;5.18;80.38
65374;SHT31;52070;53.760;9.678;2023-04-25T06:58:50;5.22;80.14
65374;SHT31;52070;53.760;9.678;2023-04-25T07:01:16;5.30;79.19
65374;SHT31;52070;53.760;9.678;2023-04-25T07:03:43;5.46;78.86
65374;SHT31;52070;53.760;9.678;2023-04-25T07:06:12;5.69;79.55
65374;SHT31;52070;53.760;9.678;2023-04-25T07:08:39;5.89;78.84
65374;SHT31;52070;53.760;9.678;2023-04-25T07:11:06;6.12;78.88
65374;SHT31;52070;53.760;9.678;2023-04-25T07:13:33;6.32;77.69
65374;SHT31;52070;53.760;9.678;2023-04-25T07:16:00;6.46;78.29
65374;SHT31;52070;53.760;9.678;2023-04-25T07:18:27;6.57;78.11
65374;SHT31;52070;53.760;9.678;2023-04-25T07:20:54;6.64;77.67
65374;SHT31;52070;53.760;9.678;2023-04-25T07:23:22;6.69;78.46
65374;SHT31;52070;53.760;9.678;2023-04-25T07:25:49;6.65;78.50
65374;SHT31;52070;53.760;9.678;2023-04-25T07:28:16;6.77;78.48
65374;SHT31;52070;53.760;9.678;2023-04-25T07:30:43;6.83;77.16
65374;SHT31;52070;53.760;9.678;2023-04-25T07:33:10;6.83;76.87
65374;SHT31;52070;53.760;9.678;2023-04-25T07:35:37;6.90;77.82
65374;SHT31;52070;53.760;9.678;2023-04-25T07:38:04;6.96;77.94
65374;SHT31;52070;53.760;9.678;2023-04-25T07:40:33;6.90;77.36
65374;SHT31;52070;53.760;9.678;2023-04-25T07:43:00;6.76;76.95
65374;SHT31;52070;53.760;9.678;2023-04-25T07:45:27;6.72;77.63
65374;SHT31;52070;53.760;9.678;2023-04-25T07:47:54;6.10;78.37
65374;SHT31;52070;53.760;9.678;2023-04-25T07:50:21;6.00;80.56
65374;SHT31;52070;53.760;9.678;2023-04-25T07:52:48;5.90;81.27
65374;SHT31;52070;53.760;9.678;2023-04-25T07:55:15;5.63;80.72
65374;SHT31;52070;53.760;9.678;2023-04-25T07:57:44;5.71;81.12
65374;SHT31;52070;53.760;9.678;2023-04-25T08:00:12;5.69;81.98
65374;SHT31;52070;53.760;9.678;2023-04-25T08:02:40;5.86;83.29
65374;SHT31;52070;53.760;9.678;2023-04-25T08:05:07;6.08;83.45
65374;SHT31;52070;53.760;9.678;2023-04-25T08:07:37;6.15;81.34
65374;SHT31;52070;53.760;9.678;2023-04-25T08:10:05;6.26;79.84
65374;SHT31;52070;53.760;9.678;2023-04-25T08:12:32;6.34;80.32
65374;SHT31;52070;53.760;9.678;2023-04-25T08:15:01;6.45;79.52
65374;SHT31;52070;53.760;9.678;2023-04-25T08:17:28;6.69;76.86
65374;SHT31;52070;53.760;9.678;2023-04-25T08:19:55;6.97;76.85
65374;SHT31;52070;53.760;9.678;2023-04-25T08:22:22;7.24;74.64
65374;SHT31;52070;53.760;9.678;2023-04-25T08:24:49;7.50;75.44
65374;SHT31;52070;53.760;9.678;2023-04-25T08:27:17;7.57;73.05
65374;SHT31;52070;53.760;9.678;2023-04-25T08:29:46;7.61;72.11
65374;SHT31;52070;53.760;9.678;2023-04-25T08:32:14;7.62;70.23
65374;SHT31;52070;53.760;9.678;2023-04-25T08:34:41;7.68;70.50
65374;SHT31;52070;53.760;9.678;2023-04-25T08:37:09;7.79;72.50
65374;SHT31;52070;53.760;9.678;2023-04-25T08:39:36;7.86;70.29
65374;SHT31;52070;53.760;9.678;2023-04-25T08:42:06;7.85;70.15
65374;SHT31;52070;53.760;9.678;2023-04-25T08:44:33;7.88;69.27
65374;SHT31;52070;53.760;9.678;2023-04-25T08:47:02;7.88;65.23
65374;SHT31;52070;53.760;9.678;2023-04-25T08:49:31;7.85;67.05
65374;SHT31;52070;53.760;9.678;2023-04-25T08:52:00;7.88;67.83
65374;SHT31;52070;53.760;9.678;2023-04-25T08:54:28;7.99;67.50
65374;SHT31;52070;53.760;9.678;2023-04-25T08:56:57;7.91;66.56
65374;SHT31;52070;53.760;9.678;2023-04-25T08:59:24;7.96;66.10
65374;SHT31;52070;53.760;9.678;2023-04-25T09:01:52;7.98;66.99
65374;SHT31;52070;53.760;9.678;2023-04-25T09:04:19;8.12;66.45
65374;SHT31;52070;53.760;9.678;2023-04-25T09:06:47;8.26;66.03
65374;SHT31;52070;53.760;9.678;2023-04-25T09:09:14;8.28;65.98
65374;SHT31;52070;53.760;9.678;2023-04-25T09:11:41;8.13;65.39
65374;SHT31;52070;53.760;9.678;2023-04-25T09:14:13;7.95;66.30
65374;SHT31;52070;53.760;9.678;2023-04-25T09:17:00;7.96;68.09
65374;SHT31;52070;53.760;9.678;2023-04-25T09:19:29;7.96;65.07
65374;SHT31;52070;53.760;9.678;2023-04-25T09:21:59;7.88;65.70
65374;SHT31;52070;53.760;9.678;2023-04-25T09:24:30;7.95;65.25
65374;SHT31;52070;53.760;9.678;2023-04-25T09:26:57;8.05;65.95
65374;SHT31;52070;53.760;9.678;2023-04-25T09:29:29;7.88;64.14
65374;SHT31;52070;53.760;9.678;2023-04-25T09:32:10;7.93;66.11
65374;SHT31;52070;53.760;9.678;2023-04-25T09:34:42;8.33;67.01
65374;SHT31;52070;53.760;9.678;2023-04-25T09:37:11;8.49;66.22
65374;SHT31;52070;53.760;9.678;2023-04-25T09:39:38;8.63;64.99
65374;SHT31;52070;53.760;9.678;2023-04-25T09:42:05;8.77;66.01
65374;SHT31;52070;53.760;9.678;2023-04-25T09:44:32;8.63;62.33
65374;SHT31;52070;53.760;9.678;2023-04-25T09:46:59;8.36;60.94
65374;SHT31;52070;53.760;9.678;2023-04-25T09:49:28;8.15;60.83
65374;SHT31;52070;53.760;9.678;2023-04-25T09:51:55;8.28;63.22
65374;SHT31;52070;53.760;9.678;2023-04-25T09:54:24;8.52;65.28
65374;SHT31;52070;53.760;9.678;2023-04-25T09:56:52;9.15;62.06
65374;SHT31;52070;53.760;9.678;2023-04-25T09:59:20;9.32;62.69
65374;SHT31;52070;53.760;9.678;2023-04-25T10:01:49;9.32;63.14
65374;SHT31;52070;53.760;9.678;2023-04-25T10:04:19;9.18;64.66
65374;SHT31;52070;53.760;9.678;2023-04-25T10:06:49;9.32;63.25
65374;SHT31;52070;53.760;9.678;2023-04-25T10:09:19;8.66;61.58
65374;SHT31;52070;53.760;9.678;2023-04-25T10:11:48;8.43;64.05
65374;SHT31;52070;53.760;9.678;2023-04-25T10:14:18;8.91;65.37
65374;SHT31;52070;53.760;9.678;2023-04-25T10:16:45;9.21;60.10
65374;SHT31;52070;53.760;9.678;2023-04-25T10:19:13;8.88;59.96
65374;SHT31;52070;53.760;9.678;2023-04-25T10:21:47;8.78;61.84
65374;SHT31;52070;53.760;9.678;2023-04-25T10:24:15;8.37;67.36
65374;SHT31;52070;53.760;9.678;2023-04-25T10:26:42;8.06;69.49
65374;SHT31;52070;53.760;9.678;2023-04-25T10:29:10;7.78;70.64
65374;SHT31;52070;53.760;9.678;2023-04-25T10:31:45;8.39;71.82
65374;SHT31;52070;53.760;9.678;2023-04-25T10:34:12;8.73;71.09
65374;SHT31;52070;53.760;9.678;2023-04-25T10:36:39;8.49;68.89
65374;SHT31;52070;53.760;9.678;2023-04-25T10:39:07;8.25;69.53
65374;SHT31;52070;53.760;9.678;2023-04-25T10:41:46;7.62;71.80
65374;SHT31;52070;53.760;9.678;2023-04-25T10:44:15;7.40;72.24
65374;SHT31;52070;53.760;9.678;2023-04-25T10:46:44;7.61;74.39
65374;SHT31;52070;53.760;9.678;2023-04-25T10:49:28;7.68;70.55
65374;SHT31;52070;53.760;9.678;2023-04-25T10:52:11;7.74;69.24
65374;SHT31;52070;53.760;9.678;2023-04-25T10:54:40;7.83;68.89
65374;SHT31;52070;53.760;9.678;2023-04-25T10:57:08;7.99;70.31
65374;SHT31;52070;53.760;9.678;2023-04-25T10:59:57;8.12;70.06
65374;SHT31;52070;53.760;9.678;2023-04-25T11:02:26;8.46;68.37
65374;SHT31;52070;53.760;9.678;2023-04-25T11:04:53;8.90;68.19
65374;SHT31;52070;53.760;9.678;2023-04-25T11:07:29;9.58;67.52
65374;SHT31;52070;53.760;9.678;2023-04-25T11:10:01;10.09;66.01
65374;SHT31;52070;53.760;9.678;2023-04-25T11:12:29;10.65;62.24
65374;SHT31;52070;53.760;9.678;2023-04-25T11:15:02;10.21;59.70
65374;SHT31;52070;53.760;9.678;2023-04-25T11:17:30;10.06;60.17
65374;SHT31;52070;53.760;9.678;2023-04-25T11:19:57;10.51;58.96
65374;SHT31;52070;53.760;9.678;2023-04-25T11:22:24;10.67;58.19
65374;SHT31;52070;53.760;9.678;2023-04-25T11:24:52;10.50;57.25
65374;SHT31;52070;53.760;9.678;2023-04-25T11:27:20;10.78;57.72
65374;SHT31;52070;53.760;9.678;2023-04-25T11:29:50;10.68;55.15
65374;SHT31;52070;53.760;9.678;2023-04-25T11:32:18;10.78;55.93
65374;SHT31;52070;53.760;9.678;2023-04-25T11:34:46;10.82;55.40
65374;SHT31;52070;53.760;9.678;2023-04-25T11:37:13;11.29;57.00
65374;SHT31;52070;53.760;9.678;2023-04-25T11:39:44;10.61;56.55
65374;SHT31;52070;53.760;9.678;2023-04-25T11:42:12;10.47;56.17
65374;SHT31;52070;53.760;9.678;2023-04-25T11:44:39;10.74;57.08
65374;SHT31;52070;53.760;9.678;2023-04-25T11:47:07;10.94;54.41
65374;SHT31;52070;53.760;9.678;2023-04-25T11:49:35;10.82;56.18
65374;SHT31;52070;53.760;9.678;2023-04-25T11:52:02;11.59;56.38
65374;SHT31;52070;53.760;9.678;2023-04-25T11:54:29;11.67;55.50
65374;SHT31;52070;53.760;9.678;2023-04-25T11:56:56;11.46;54.50
65374;SHT31;52070;53.760;9.678;2023-04-25T11:59:24;11.07;55.11
65374;SHT31;52070;53.760;9.678;2023-04-25T12:01:52;10.94;54.87
65374;SHT31;52070;53.760;9.678;2023-04-25T12:04:21;10.75;52.63
65374;SHT31;52070;53.760;9.678;2023-04-25T12:06:50;10.94;52.79
65374;SHT31;52070;53.760;9.678;2023-04-25T12:09:19;10.24;54.90
65374;SHT31;52070;53.760;9.678;2023-04-25T12:11:48;10.24;54.89
65374;SHT31;52070;53.760;9.678;2023-04-25T12:14:22;10.38;53.61
65374;SHT31;52070;53.760;9.678;2023-04-25T12:16:49;10.18;52.76
65374;SHT31;52070;53.760;9.678;2023-04-25T12:19:18;10.17;57.36
65374;SHT31;52070;53.760;9.678;2023-04-25T12:21:45;9.90;60.28
65374;SHT31;52070;53.760;9.678;2023-04-25T12:24:15;9.51;60.35
65374;SHT31;52070;53.760;9.678;2023-04-25T12:26:49;9.04;64.19
65374;SHT31;52070;53.760;9.678;2023-04-25T12:29:18;8.37;65.52
65374;SHT31;52070;53.760;9.678;2023-04-25T12:31:46;8.12;65.20
65374;SHT31;52070;53.760;9.678;2023-04-25T12:34:13;7.88;64.23
65374;SHT31;52070;53.760;9.678;2023-04-25T12:36:40;7.78;63.22
65374;SHT31;52070;53.760;9.678;2023-04-25T12:39:07;8.25;64.23
65374;SHT31;52070;53.760;9.678;2023-04-25T12:41:35;8.91;64.29
65374;SHT31;52070;53.760;9.678;2023-04-25T12:44:03;9.66;63.88
65374;SHT31;52070;53.760;9.678;2023-04-25T12:46:30;10.17;61.27
65374;SHT31;52070;53.760;9.678;2023-04-25T12:48:57;10.51;57.44
65374;SHT31;52070;53.760;9.678;2023-04-25T12:51:24;9.71;58.34
65374;SHT31;52070;53.760;9.678;2023-04-25T12:53:53;9.27;60.67
65374;SHT31;52070;53.760;9.678;2023-04-25T12:56:20;9.14;62.43
65374;SHT31;52070;53.760;9.678;2023-04-25T12:58:48;8.71;66.15
65374;SHT31;52070;53.760;9.678;2023-04-25T13:01:15;9.03;67.10
65374;SHT31;52070;53.760;9.678;2023-04-25T13:03:42;9.48;64.77
65374;SHT31;52070;53.760;9.678;2023-04-25T13:06:12;9.24;64.02
65374;SHT31;52070;53.760;9.678;2023-04-25T13:08:39;8.78;64.76
65374;SHT31;52070;53.760;9.678;2023-04-25T13:11:07;9.22;66.25
65374;SHT31;52070;53.760;9.678;2023-04-25T13:13:34;9.36;65.16
65374;SHT31;52070;53.760;9.678;2023-04-25T13:16:03;9.10;65.12
65374;SHT31;52070;53.760;9.678;2023-04-25T13:18:30;8.74;65.98
65374;SHT31;52070;53.760;9.678;2023-04-25T13:20:58;8.09;67.25
65374;SHT31;52070;53.760;9.678;2023-04-25T13:23:28;7.83;70.36
65374;SHT31;52070;53.760;9.678;2023-04-25T13:25:56;7.89;71.84
65374;SHT31;52070;53.760;9.678;2023-04-25T13:28:24;8.28;68.46
65374;SHT31;52070;53.760;9.678;2023-04-25T13:30:51;8.45;66.47
65374;SHT31;52070;53.760;9.678;2023-04-25T13:33:20;8.19;63.77
65374;SHT31;52070;53.760;9.678;2023-04-25T13:35:47;8.15;64.49
65374;SHT31;52070;53.760;9.678;2023-04-25T13:38:20;8.40;64.16
65374;SHT31;52070;53.760;9.678;2023-04-25T13:40:48;9.05;63.69
65374;SHT31;52070;53.760;9.678;2023-04-25T13:43:15;9.36;60.78
65374;SHT31;52070;53.760;9.678;2023-04-25T13:45:42;9.18;59.74
65374;SHT31;52070;53.760;9.678;2023-04-25T13:48:09;9.89;61.31
65374;SHT31;52070;53.760;9.678;2023-04-25T13:50:37;9.95;57.15
65374;SHT31;52070;53.760;9.678;2023-04-25T13:53:04;9.93;56.76
65374;SHT31;52070;53.760;9.678;2023-04-25T13:55:31;9.65;56.93
65374;SHT31;52070;53.760;9.678;2023-04-25T13:57:58;9.04;57.37
65374;SHT31;52070;53.760;9.678;2023-04-25T14:00:25;9.22;58.84
65374;SHT31;52070;53.760;9.678;2023-04-25T14:02:52;9.38;57.66
65374;SHT31;52070;53.760;9.678;2023-04-25T14:05:19;9.89;58.98
65374;SHT31;52070;53.760;9.678;2023-04-25T14:07:47;10.04;57.94
65374;SHT31;52070;53.760;9.678;2023-04-25T14:10:14;10.29;55.11
65374;SHT31;52070;53.760;9.678;2023-04-25T14:12:41;9.86;54.44
65374;SHT31;52070;53.760;9.678;2023-04-25T14:15:08;10.30;55.74
65374;SHT31;52070;53.760;9.678;2023-04-25T14:17:36;10.85;56.22
65374;SHT31;52070;53.760;9.678;2023-04-25T14:20:04;11.04;53.82
65374;SHT31;52070;53.760;9.678;2023-04-25T14:22:33;10.85;54.49
65374;SHT31;52070;53.760;9.678;2023-04-25T14:25:01;11.32;56.21
65374;SHT31;52070;53.760;9.678;2023-04-25T14:27:29;11.07;53.21
65374;SHT31;52070;53.760;9.678;2023-04-25T14:29:55;11.23;54.83
65374;SHT31;52070;53.760;9.678;2023-04-25T14:32:22;11.35;53.74
65374;SHT31;52070;53.760;9.678;2023-04-25T14:34:49;10.84;55.40
65374;SHT31;52070;53.760;9.678;2023-04-25T14:37:16;9.99;58.30
65374;SHT31;52070;53.760;9.678;2023-04-25T14:39:43;9.22;61.75
65374;SHT31;52070;53.760;9.678;2023-04-25T14:42:12;8.13;67.67
65374;SHT31;52070;53.760;9.678;2023-04-25T14:44:39;7.30;71.59
65374;SHT31;52070;53.760;9.678;2023-04-25T14:47:05;6.73;70.78
65374;SHT31;52070;53.760;9.678;2023-04-25T14:49:33;6.55;72.36
65374;SHT31;52070;53.760;9.678;2023-04-25T14:52:00;6.62;71.02
65374;SHT31;52070;53.760;9.678;2023-04-25T14:54:27;6.77;72.78
65374;SHT31;52070;53.760;9.678;2023-04-25T14:56:54;7.03;74.05
65374;SHT31;52070;53.760;9.678;2023-04-25T14:59:23;7.35;73.34
65374;SHT31;52070;53.760;9.678;2023-04-25T15:01:50;7.68;74.26
65374;SHT31;52070;53.760;9.678;2023-04-25T15:04:17;7.88;71.54
65374;SHT31;52070;53.760;9.678;2023-04-25T15:06:44;8.56;70.69
65374;SHT31;52070;53.760;9.678;2023-04-25T15:09:11;8.97;69.89
65374;SHT31;52070;53.760;9.678;2023-04-25T15:11:38;9.04;65.44
65374;SHT31;52070;53.760;9.678;2023-04-25T15:14:05;9.00;66.11
65374;SHT31;52070;53.760;9.678;2023-04-25T15:16:33;9.46;65.03
65374;SHT31;52070;53.760;9.678;2023-04-25T15:19:00;9.90;60.41
65374;SHT31;52070;53.760;9.678;2023-04-25T15:21:29;9.65;59.58
65374;SHT31;52070;53.760;9.678;2023-04-25T15:23:57;9.90;60.45
65374;SHT31;52070;53.760;9.678;2023-04-25T15:26:24;10.40;59.06
65374;SHT31;52070;53.760;9.678;2023-04-25T15:28:51;10.50;58.05
65374;SHT31;52070;53.760;9.678;2023-04-25T15:31:18;10.23;57.68
65374;SHT31;52070;53.760;9.678;2023-04-25T15:33:46;9.51;54.45
65374;SHT31;52070;53.760;9.678;2023-04-25T15:36:13;8.74;56.32
65374;SHT31;52070;53.760;9.678;2023-04-25T15:38:42;8.74;58.83
65374;SHT31;52070;53.760;9.678;2023-04-25T15:41:09;9.32;57.98
65374;SHT31;52070;53.760;9.678;2023-04-25T15:43:36;9.35;58.59
65374;SHT31;52070;53.760;9.678;2023-04-25T15:46:03;9.42;59.53
65374;SHT31;52070;53.760;9.678;2023-04-25T15:48:30;9.31;60.38